Time;durP1;ratioP1;P1;durP2;ratioP2;P2;SDS_P1;SDS_P2;PMS_P1;PMS_P2;Temp;Humidity;BMP_temperature;BMP_pressure;BME280_temperature;BME280_humidity;BME280_pressure;Samples;Min_cycle;Max_cycle;Signal;HPM_P1;HPM_P2
2023/11/12 00:01:48;;;;;;;10.27;5.07;;;;;;;5.75;96.38;99946.53;5032027;28;20226;-71
2023/11/12 00:04:15;;;;;;;8.63;5.07;;;;;;;5.77;96.39;99957.47;5033757;28;20313;-70
2023/11/12 00:06:41;;;;;;;8.73;5.40;;;;;;;5.78;95.74;99961.63;5027843;28;20637;-70
2023/11/12 00:09:09;;;;;;;7.33;4.50;;;;;;;5.80;95.81;99951.66;5029549;28;20200;-71
2023/11/12 00:11:36;;;;;;;6.10;4.63;;;;;;;5.82;96.14;99962.59;5030924;28;20620;-71
2023/11/12 00:14:02;;;;;;;7.47;5.00;;;;;;;5.82;95.55;99958.13;5030270;28;20227;-71
2023/11/12 00:16:30;;;;;;;9.17;4.37;;;;;;;5.83;95.70;99961.50;5032888;28;20223;-71
2023/11/12 00:18:57;;;;;;;8.13;4.63;;;;;;;5.84;95.39;99960.41;5035294;28;20217;-71
2023/11/12 00:21:24;;;;;;;8.57;4.43;;;;;;;5.86;95.55;99964.28;5030547;28;20210;-70
2023/11/12 00:23:51;;;;;;;7.97;4.67;;;;;;;5.87;95.59;99965.06;5030121;28;20230;-69
2023/11/12 00:26:18;;;;;;;8.40;5.60;;;;;;;5.87;95.30;99965.06;5031269;28;20308;-71
2023/11/12 00:28:50;;;;;;;7.10;4.40;;;;;;;5.89;95.51;99965.50;5027216;28;20608;-70
2023/11/12 00:31:17;;;;;;;7.50;5.27;;;;;;;5.89;95.14;99968.13;5026153;28;20696;-71
2023/11/12 00:33:45;;;;;;;7.80;5.37;;;;;;;5.90;95.53;99965.19;5029712;28;20228;-71
2023/11/12 00:36:11;;;;;;;6.67;5.20;;;;;;;5.90;95.26;99962.56;5008430;28;20223;-71
2023/11/12 00:38:37;;;;;;;9.30;5.53;;;;;;;5.92;95.29;99964.91;5030935;28;20207;-71
2023/11/12 00:41:04;;;;;;;8.20;4.70;;;;;;;5.93;95.79;99971.66;5013796;28;20219;-71
2023/11/12 00:43:34;;;;;;;7.57;5.10;;;;;;;5.93;95.00;99961.97;5033111;28;20335;-72
2023/11/12 00:46:01;;;;;;;8.13;4.50;;;;;;;5.94;95.07;99957.47;5028647;28;20211;-70
2023/11/12 00:48:27;;;;;;;6.43;5.00;;;;;;;5.94;94.56;99966.13;5008546;28;20660;-71
2023/11/12 00:50:55;;;;;;;9.50;5.30;;;;;;;5.95;94.48;99962.41;5027313;28;21926;-69
2023/11/12 00:53:22;;;;;;;7.33;5.17;;;;;;;5.95;94.99;99972.91;5035571;28;20231;-71
2023/11/12 00:55:49;;;;;;;7.80;5.10;;;;;;;5.95;94.89;99956.44;5013909;28;20241;-71
2023/11/12 00:58:15;;;;;;;10.40;5.73;;;;;;;5.98;94.52;99961.03;5027713;28;20215;-70
2023/11/12 01:00:41;;;;;;;10.33;5.60;;;;;;;5.96;94.96;99963.19;5007730;28;20211;-71
2023/11/12 01:03:08;;;;;;;7.57;5.40;;;;;;;5.97;95.01;99969.97;5014707;28;20934;-71
2023/11/12 01:05:35;;;;;;;10.20;5.53;;;;;;;5.97;94.81;99972.59;5030214;28;20199;-71
2023/11/12 01:08:03;;;;;;;5.83;4.67;;;;;;;5.99;94.13;99970.44;5012728;28;20842;-71
2023/11/12 01:10:29;;;;;;;7.47;5.40;;;;;;;5.98;94.88;99972.28;5020306;28;20210;-71
2023/11/12 01:12:56;;;;;;;7.47;5.50;;;;;;;6.00;94.57;99977.25;5019017;28;20230;-69
2023/11/12 01:15:23;;;;;;;10.47;5.20;;;;;;;6.01;93.97;99978.78;5031474;28;20546;-70
2023/11/12 01:17:49;;;;;;;11.90;4.87;;;;;;;6.01;94.67;99974.28;5015839;28;20253;-71
2023/11/12 01:20:16;;;;;;;8.60;5.90;;;;;;;6.04;94.57;99983.38;5018141;28;20207;-71
2023/11/12 01:22:42;;;;;;;9.03;5.33;;;;;;;6.04;93.75;99971.06;5034365;28;20249;-71
2023/11/12 01:25:12;;;;;;;8.17;5.33;;;;;;;6.05;94.25;99977.84;5034185;28;20253;-71
2023/11/12 01:27:38;;;;;;;11.03;5.57;;;;;;;6.05;94.55;99975.22;5011847;28;20308;-70
2023/11/12 01:30:07;;;;;;;7.67;5.27;;;;;;;6.07;94.42;99972.28;5033566;28;20689;-71
2023/11/12 01:32:34;;;;;;;9.83;5.97;;;;;;;6.07;94.27;99974.91;5035881;28;20214;-71
2023/11/12 01:35:01;;;;;;;9.47;5.27;;;;;;;6.07;94.47;99972.28;5036080;28;20620;-70
2023/11/12 01:37:28;;;;;;;7.70;5.33;;;;;;;6.09;93.93;99970.13;5012288;28;21053;-69
2023/11/12 01:39:54;;;;;;;6.37;5.03;;;;;;;6.08;94.30;99969.38;5032095;28;20222;-68
2023/11/12 01:42:22;;;;;;;9.17;5.30;;;;;;;6.09;93.38;99970.13;5018565;28;20211;-70
2023/11/12 01:44:49;;;;;;;8.03;5.47;;;;;;;6.08;93.39;99971.97;5020022;28;20221;-70
2023/11/12 01:47:16;;;;;;;6.33;4.77;;;;;;;6.10;93.89;99969.81;5034548;28;20389;-69
2023/11/12 01:49:43;;;;;;;9.43;5.30;;;;;;;6.09;93.36;99968.28;5032986;28;20316;-71
2023/11/12 01:52:11;;;;;;;6.20;4.77;;;;;;;6.11;94.05;99965.34;5018547;28;20232;-70
2023/11/12 01:54:39;;;;;;;6.53;4.97;;;;;;;6.11;93.36;99968.72;5014377;28;20458;-69
2023/11/12 01:57:07;;;;;;;10.23;5.43;;;;;;;6.13;93.73;99960.56;5015868;28;20665;-69
2023/11/12 01:59:35;;;;;;;7.63;5.00;;;;;;;6.13;93.42;99966.59;5031141;28;20302;-68
2023/11/12 02:02:03;;;;;;;7.40;5.40;;;;;;;6.15;93.72;99961.78;5017582;28;20195;-70
2023/11/12 02:04:30;;;;;;;6.43;5.10;;;;;;;6.15;93.57;99964.41;5031721;28;20224;-69
2023/11/12 02:06:59;;;;;;;7.73;4.63;;;;;;;6.16;93.86;99958.09;5014983;28;21121;-70
2023/11/12 02:09:26;;;;;;;6.57;5.00;;;;;;;6.19;93.27;99959.31;5013607;28;20233;-70
2023/11/12 02:11:53;;;;;;;7.20;4.80;;;;;;;6.18;93.22;99955.16;5035390;28;20291;-70
2023/11/12 02:14:21;;;;;;;7.07;5.10;;;;;;;6.20;92.79;99958.22;5036000;28;20424;-70
2023/11/12 02:16:51;;;;;;;7.30;4.80;;;;;;;6.20;93.79;99958.22;5016741;28;20234;-71
2023/11/12 02:19:24;;;;;;;6.00;4.93;;;;;;;6.22;93.02;99966.56;5014696;28;20212;-71
2023/11/12 02:21:51;;;;;;;6.43;4.60;;;;;;;6.23;92.87;99968.09;5015779;28;20203;-71
2023/11/12 02:24:18;;;;;;;7.03;5.20;;;;;;;6.24;93.61;99956.53;5015608;28;20227;-70
2023/11/12 02:26:45;;;;;;;5.50;4.40;;;;;;;6.24;92.56;99959.16;5014007;28;20285;-70
2023/11/12 02:29:11;;;;;;;6.30;5.23;;;;;;;6.26;93.35;99960.38;5017376;28;20682;-71
2023/11/12 02:31:38;;;;;;;7.87;5.13;;;;;;;6.26;92.96;99960.38;5014949;28;20307;-68
2023/11/12 02:34:05;;;;;;;8.17;5.03;;;;;;;6.26;93.49;99965.63;5032195;28;20243;-71
2023/11/12 02:36:34;;;;;;;6.93;5.00;;;;;;;6.26;93.34;99963.00;5016508;28;20219;-71
2023/11/12 02:39:01;;;;;;;5.80;4.80;;;;;;;6.27;92.94;99961.91;5016082;28;20212;-70
2023/11/12 02:41:30;;;;;;;6.53;4.83;;;;;;;6.28;92.65;99967.94;5033698;28;20210;-69
2023/11/12 02:43:56;;;;;;;8.50;4.43;;;;;;;6.30;93.00;99971.00;5031660;28;20281;-70
2023/11/12 02:46:23;;;;;;;10.03;4.83;;;;;;;6.29;92.98;99970.25;5014337;28;20814;-71
2023/11/12 02:49:07;;;;;;;7.03;4.40;;;;;;;6.30;93.13;99966.56;5012148;28;20235;-70
2023/11/12 02:51:33;;;;;;;6.23;4.77;;;;;;;6.32;92.58;99966.25;5014367;28;20219;-70
2023/11/12 02:54:00;;;;;;;5.10;4.17;;;;;;;6.32;92.96;99966.25;5032300;28;20219;-69
2023/11/12 02:56:26;;;;;;;6.20;4.70;;;;;;;6.32;92.92;99968.88;5031724;28;20223;-69
2023/11/12 02:58:54;;;;;;;6.23;4.23;;;;;;;6.32;92.80;99964.38;5032257;28;20349;-70
2023/11/12 03:01:20;;;;;;;5.93;4.47;;;;;;;6.31;91.97;99960.22;5016004;28;20730;-70
2023/11/12 03:03:47;;;;;;;9.10;4.20;;;;;;;6.33;92.36;99959.91;5017989;28;20228;-69
2023/11/12 03:06:13;;;;;;;5.13;4.30;;;;;;;6.33;92.39;99962.53;5013870;28;20206;-71
2023/11/12 03:08:40;;;;;;;6.50;4.83;;;;;;;6.33;92.34;99965.16;5035752;28;20214;-72
2023/11/12 03:11:07;;;;;;;4.90;4.10;;;;;;;6.34;91.77;99962.22;5035249;28;20677;-72
2023/11/12 03:13:34;;;;;;;7.27;4.40;;;;;;;6.35;92.62;99965.59;5031675;28;20233;-72
2023/11/12 03:16:01;;;;;;;7.87;4.30;;;;;;;6.34;91.71;99967.47;5017645;28;20219;-70
2023/11/12 03:18:28;;;;;;;8.60;4.57;;;;;;;6.34;92.57;99972.72;5017507;28;20562;-71
2023/11/12 03:20:54;;;;;;;5.97;4.20;;;;;;;6.34;91.43;99971.94;5034437;28;20689;-69
2023/11/12 03:23:21;;;;;;;6.20;4.77;;;;;;;6.35;92.11;99971.63;5033808;28;20231;-70
2023/11/12 03:25:48;;;;;;;6.07;4.30;;;;;;;6.36;91.87;99975.78;5014607;28;20222;-71
2023/11/12 03:28:14;;;;;;;6.50;4.60;;;;;;;6.36;92.63;99973.16;5029154;28;20633;-71
2023/11/12 03:30:41;;;;;;;6.67;5.13;;;;;;;6.36;91.63;99967.13;5031982;28;20397;-71
2023/11/12 03:33:08;;;;;;;5.97;4.60;;;;;;;6.38;91.99;99970.25;5029802;28;20224;-71
2023/11/12 03:35:36;;;;;;;8.10;4.73;;;;;;;6.37;92.37;99972.06;5032443;28;20211;-71
2023/11/12 03:38:03;;;;;;;5.63;4.60;;;;;;;6.38;92.02;99965.75;5033537;28;20770;-71
2023/11/12 03:40:29;;;;;;;4.80;4.30;;;;;;;6.38;92.47;99968.38;5032589;28;20203;-72
2023/11/12 03:42:55;;;;;;;5.77;4.30;;;;;;;6.39;91.82;99974.41;5017941;28;20269;-70
2023/11/12 03:45:22;;;;;;;8.50;4.73;;;;;;;6.39;91.62;99967.31;5015727;28;20208;-70
2023/11/12 03:47:48;;;;;;;6.57;4.47;;;;;;;6.39;92.75;99969.94;5014409;28;20924;-70
2023/11/12 03:50:17;;;;;;;5.67;4.20;;;;;;;6.38;92.27;99960.50;5016582;28;20298;-69
2023/11/12 03:52:43;;;;;;;8.23;4.60;;;;;;;6.39;92.50;99971.78;5013672;28;23748;-70
2023/11/12 03:55:10;;;;;;;5.73;4.97;;;;;;;6.39;92.30;99972.56;5029492;28;20211;-70
2023/11/12 03:57:36;;;;;;;6.50;4.37;;;;;;;6.39;93.01;99963.91;5015015;28;20288;-69
2023/11/12 04:00:04;;;;;;;5.67;4.40;;;;;;;6.37;92.39;99966.84;5017660;28;20199;-70
2023/11/12 04:02:38;;;;;;;7.57;4.63;;;;;;;6.37;93.06;99966.84;5032534;28;20601;-70
2023/11/12 04:05:06;;;;;;;7.60;5.17;;;;;;;6.37;92.25;99966.09;5019008;28;20199;-70
2023/11/12 04:07:33;;;;;;;7.73;4.87;;;;;;;6.35;92.64;99958.53;5016214;28;20211;-70
2023/11/12 04:09:59;;;;;;;7.23;4.60;;;;;;;6.35;92.94;99965.59;5016458;28;20208;-70
2023/11/12 04:12:26;;;;;;;5.57;4.90;;;;;;;6.35;92.86;99966.38;5017585;28;20212;-70
2023/11/12 04:14:52;;;;;;;6.13;4.77;;;;;;;6.36;92.39;99975.78;5029178;28;20844;-70
2023/11/12 04:17:19;;;;;;;6.23;4.80;;;;;;;6.35;92.92;99971.63;5018188;28;20615;-69
2023/11/12 04:19:45;;;;;;;6.67;5.13;;;;;;;6.35;93.44;99973.47;5010520;28;20209;-70
2023/11/12 04:22:12;;;;;;;9.67;5.10;;;;;;;6.36;93.29;99973.16;5013996;28;20222;-70
2023/11/12 04:24:40;;;;;;;5.33;4.60;;;;;;;6.35;93.04;99974.25;5014330;28;20246;-70
2023/11/12 04:27:07;;;;;;;10.00;5.13;;;;;;;6.35;93.45;99976.09;5032174;28;20665;-70
2023/11/12 04:29:34;;;;;;;6.50;4.67;;;;;;;6.34;92.66;99969.31;5014544;28;20213;-71
2023/11/12 04:32:00;;;;;;;5.37;4.50;;;;;;;6.35;93.13;99968.22;5028829;28;21949;-70
2023/11/12 04:34:27;;;;;;;5.77;4.80;;;;;;;6.34;92.80;99966.69;5016202;28;20286;-71
2023/11/12 04:36:56;;;;;;;9.57;4.87;;;;;;;6.34;93.41;99966.69;5014628;28;20250;-70
2023/11/12 04:39:22;;;;;;;6.70;4.90;;;;;;;6.34;93.31;99969.31;5032579;28;20277;-70
2023/11/12 04:41:49;;;;;;;5.40;4.53;;;;;;;6.34;93.68;99971.94;5017356;28;20230;-70
2023/11/12 04:44:16;;;;;;;6.00;5.07;;;;;;;6.33;93.07;99979.03;5033877;28;20231;-70
2023/11/12 04:46:43;;;;;;;7.23;4.97;;;;;;;6.32;92.79;99979.34;5029690;28;20207;-71
2023/11/12 04:49:12;;;;;;;9.83;4.90;;;;;;;6.31;93.70;99978.56;5033538;28;20290;-71
2023/11/12 04:51:38;;;;;;;7.97;5.20;;;;;;;6.31;92.90;99975.19;5030376;28;20977;-69
2023/11/12 04:54:05;;;;;;;12.00;5.27;;;;;;;6.30;93.65;99977.03;5031977;28;20231;-71
2023/11/12 04:56:31;;;;;;;7.23;4.77;;;;;;;6.29;93.45;99977.34;5034276;28;20289;-70
2023/11/12 04:58:59;;;;;;;7.40;5.10;;;;;;;6.27;93.57;99977.66;5031689;28;20678;-70
2023/11/12 05:01:25;;;;;;;6.10;5.10;;;;;;;6.27;93.32;99974.28;5027070;28;20204;-69
2023/11/12 05:03:52;;;;;;;7.57;5.47;;;;;;;6.26;93.75;99973.50;5030203;28;20631;-71
2023/11/12 05:06:18;;;;;;;7.43;5.37;;;;;;;6.26;92.98;99973.50;5031281;28;20237;-71
2023/11/12 05:08:44;;;;;;;6.70;5.57;;;;;;;6.24;93.86;99972.25;5027507;28;20640;-71
2023/11/12 05:11:11;;;;;;;7.20;4.83;;;;;;;6.23;93.68;99978.59;5032556;28;20217;-70
2023/11/12 05:13:37;;;;;;;5.70;4.63;;;;;;;6.22;94.06;99983.06;5032453;28;20242;-71
2023/11/12 05:16:06;;;;;;;6.47;5.37;;;;;;;6.23;93.54;99986.44;5035921;28;20226;-70
2023/11/12 05:18:33;;;;;;;6.17;4.93;;;;;;;6.21;93.89;99986.75;5033356;28;20763;-71
2023/11/12 05:20:59;;;;;;;11.03;5.83;;;;;;;6.20;93.32;99981.81;5031033;28;20222;-71
2023/11/12 05:23:25;;;;;;;6.00;4.77;;;;;;;6.19;94.23;99982.91;5036129;28;20229;-69
2023/11/12 05:25:52;;;;;;;9.30;4.93;;;;;;;6.18;93.77;99989.22;5017267;28;20222;-71
2023/11/12 05:28:19;;;;;;;7.90;4.80;;;;;;;6.16;93.24;99984.28;5033132;28;20211;-70
2023/11/12 05:30:45;;;;;;;7.73;5.23;;;;;;;6.16;93.33;99984.28;5032714;28;20215;-71
2023/11/12 05:33:13;;;;;;;6.17;4.83;;;;;;;6.16;94.12;99992.16;5032933;28;20226;-71
2023/11/12 05:35:39;;;;;;;8.17;5.67;;;;;;;6.15;94.12;99998.50;5031598;28;20199;-69
2023/11/12 05:38:05;;;;;;;7.37;5.10;;;;;;;6.16;93.61;100001.88;5034068;28;20215;-70
2023/11/12 05:40:32;;;;;;;10.00;5.27;;;;;;;6.16;94.12;100007.13;5033015;28;20606;-71
2023/11/12 05:42:58;;;;;;;7.17;5.07;;;;;;;6.13;94.14;100000.66;5029091;28;20224;-69
2023/11/12 05:45:25;;;;;;;6.50;5.33;;;;;;;6.12;93.48;100004.34;5031968;28;20208;-70
2023/11/12 05:47:51;;;;;;;7.97;5.77;;;;;;;6.12;93.49;100004.34;5027163;28;20199;-71
2023/11/12 05:50:19;;;;;;;7.97;5.20;;;;;;;6.11;93.48;100009.91;5033987;28;20230;-71
2023/11/12 05:52:45;;;;;;;9.67;5.57;;;;;;;6.09;93.79;100010.22;5034826;28;20607;-71
2023/11/12 05:55:11;;;;;;;10.30;5.03;;;;;;;6.10;93.31;100009.13;5032691;28;20716;-70
2023/11/12 05:57:38;;;;;;;8.87;5.43;;;;;;;6.10;93.94;100006.50;5037075;28;20708;-70
2023/11/12 06:00:07;;;;;;;8.00;5.10;;;;;;;6.09;93.53;100012.06;5037754;28;21563;-71
2023/11/12 06:02:38;;;;;;;7.30;5.10;;;;;;;6.08;93.53;100011.31;5035310;28;20294;-70
2023/11/12 06:05:05;;;;;;;9.53;5.47;;;;;;;6.09;93.23;100012.06;5034675;28;21414;-70
2023/11/12 06:07:32;;;;;;;11.87;5.27;;;;;;;6.07;93.84;100020.22;5027978;28;20230;-70
2023/11/12 06:10:00;;;;;;;7.03;5.33;;;;;;;6.06;93.92;100023.91;5034995;28;20217;-71
2023/11/12 06:12:26;;;;;;;9.03;5.20;;;;;;;6.06;93.27;100023.16;5036638;28;20289;-71
2023/11/12 06:14:52;;;;;;;8.50;5.60;;;;;;;6.06;93.11;100015.31;5032519;28;20581;-71
2023/11/12 06:17:19;;;;;;;6.97;5.23;;;;;;;6.05;93.59;100029.47;5036085;28;20227;-71
2023/11/12 06:19:46;;;;;;;7.13;4.77;;;;;;;6.04;93.04;100031.34;5033308;28;20211;-68
2023/11/12 06:22:12;;;;;;;5.93;4.63;;;;;;;6.05;93.43;100038.09;5036430;28;20616;-71
2023/11/12 06:24:40;;;;;;;7.17;4.93;;;;;;;6.06;93.70;100033.66;5034602;28;21384;-71
2023/11/12 06:27:06;;;;;;;9.03;5.13;;;;;;;6.06;93.64;100039.66;5034954;28;20202;-70
2023/11/12 06:29:33;;;;;;;7.37;5.30;;;;;;;6.05;93.91;100039.94;5033182;28;20200;-70
2023/11/12 06:31:59;;;;;;;6.93;5.40;;;;;;;6.05;93.61;100030.25;5033831;28;20218;-70
2023/11/12 06:34:25;;;;;;;8.47;5.83;;;;;;;6.06;93.99;100041.50;5034717;28;20801;-69
2023/11/12 06:36:52;;;;;;;7.90;5.40;;;;;;;6.05;93.15;100037.31;5034759;28;20203;-70
2023/11/12 06:39:18;;;;;;;8.80;4.80;;;;;;;6.04;93.12;100033.94;5034787;28;20222;-70
2023/11/12 06:41:46;;;;;;;7.80;5.10;;;;;;;6.06;93.40;100044.88;5017360;28;20206;-71
2023/11/12 06:44:12;;;;;;;13.37;5.53;;;;;;;6.06;93.82;100046.75;5034887;28;20614;-70
2023/11/12 06:46:44;;;;;;;7.80;5.33;;;;;;;6.06;94.03;100050.13;5033071;28;20215;-70
2023/11/12 06:49:10;;;;;;;7.10;5.17;;;;;;;6.07;93.95;100050.91;5037792;28;20207;-71
2023/11/12 06:51:36;;;;;;;7.73;4.83;;;;;;;6.07;93.88;100050.91;5034740;28;20203;-71
2023/11/12 06:54:03;;;;;;;7.17;5.47;;;;;;;6.08;93.47;100057.69;5034898;28;20223;-71
2023/11/12 06:56:32;;;;;;;7.17;5.33;;;;;;;6.08;93.37;100058.47;5036299;28;20291;-69
2023/11/12 06:59:00;;;;;;;10.33;5.17;;;;;;;6.09;94.04;100060.00;5032691;28;20238;-70
2023/11/12 07:01:26;;;;;;;10.60;5.30;;;;;;;6.10;93.37;100074.66;5037527;28;20212;-69
2023/11/12 07:03:53;;;;;;;7.90;5.40;;;;;;;6.12;93.34;100069.09;5035184;28;20238;-70
2023/11/12 07:06:19;;;;;;;7.83;5.53;;;;;;;6.13;94.12;100068.03;5033667;28;20211;-70
2023/11/12 07:08:45;;;;;;;10.23;6.03;;;;;;;6.14;93.50;100070.34;5033070;28;20245;-71
2023/11/12 07:11:12;;;;;;;8.87;5.30;;;;;;;6.15;93.45;100069.25;5017865;28;20204;-70
2023/11/12 07:13:38;;;;;;;8.83;5.27;;;;;;;6.17;93.46;100074.94;5034929;28;20262;-70
2023/11/12 07:16:14;;;;;;;11.63;5.50;;;;;;;6.19;94.17;100074.66;5037107;28;20215;-69
2023/11/12 07:18:41;;;;;;;8.93;5.63;;;;;;;6.21;94.28;100083.75;5035316;28;20222;-71
2023/11/12 07:21:07;;;;;;;6.90;5.73;;;;;;;6.22;93.70;100076.66;5035516;28;20954;-70
2023/11/12 07:23:34;;;;;;;8.93;5.47;;;;;;;6.23;93.99;100080.81;5034409;28;20234;-70
2023/11/12 07:26:00;;;;;;;11.17;5.03;;;;;;;6.26;94.05;100083.59;5034086;28;20202;-70
2023/11/12 07:28:27;;;;;;;8.33;5.90;;;;;;;6.28;94.12;100085.91;5032236;28;21100;-71
2023/11/12 07:30:53;;;;;;;7.93;5.70;;;;;;;6.29;94.20;100083.00;5035171;28;20658;-71
2023/11/12 07:33:21;;;;;;;10.10;6.20;;;;;;;6.33;93.38;100078.66;5034126;28;20784;-70
2023/11/12 07:35:48;;;;;;;7.00;5.07;;;;;;;6.35;93.53;100089.63;5037253;28;20242;-69
2023/11/12 07:38:14;;;;;;;8.03;5.43;;;;;;;6.37;94.12;100084.06;5033351;28;20466;-70
2023/11/12 07:40:41;;;;;;;9.40;5.67;;;;;;;6.38;94.03;100086.38;5029576;28;20638;-71
2023/11/12 07:43:08;;;;;;;7.53;5.80;;;;;;;6.40;93.88;100084.22;5035678;28;20301;-69
2023/11/12 07:45:34;;;;;;;6.63;5.13;;;;;;;6.44;93.90;100094.88;5015187;28;20199;-70
2023/11/12 07:48:00;;;;;;;7.97;5.30;;;;;;;6.47;92.97;100086.38;5030998;28;20206;-71
2023/11/12 07:50:28;;;;;;;7.93;5.43;;;;;;;6.49;93.08;100095.50;5034093;28;20230;-70
2023/11/12 07:52:55;;;;;;;6.87;5.27;;;;;;;6.52;93.54;100088.84;5035890;28;20286;-69
2023/11/12 07:55:21;;;;;;;7.87;5.70;;;;;;;6.55;93.36;100085.59;5033850;28;20204;-69
2023/11/12 07:57:48;;;;;;;6.43;5.33;;;;;;;6.56;92.98;100093.16;5037228;28;20234;-69
2023/11/12 08:00:15;;;;;;;9.00;5.50;;;;;;;6.59;93.24;100094.38;5034949;28;20214;-71
2023/11/12 08:02:41;;;;;;;6.83;5.00;;;;;;;6.61;92.46;100095.63;5033458;28;20215;-70
2023/11/12 08:05:08;;;;;;;9.17;5.80;;;;;;;6.66;93.30;100100.72;5034039;28;20616;-69
2023/11/12 08:07:36;;;;;;;7.67;5.43;;;;;;;6.70;93.10;100099.00;5033765;28;20662;-70
2023/11/12 08:10:04;;;;;;;9.53;6.10;;;;;;;6.73;92.42;100100.25;5035282;28;20684;-70
2023/11/12 08:12:31;;;;;;;7.80;4.87;;;;;;;6.76;92.93;100097.78;5030398;28;20206;-70
2023/11/12 08:14:57;;;;;;;6.43;5.00;;;;;;;6.78;91.92;100100.84;5032050;28;20854;-71
2023/11/12 08:17:24;;;;;;;8.00;5.23;;;;;;;6.81;92.23;100102.06;5032987;28;20208;-70
2023/11/12 08:19:52;;;;;;;7.77;5.53;;;;;;;6.84;91.54;100104.84;5030936;28;20357;-71
2023/11/12 08:22:18;;;;;;;8.47;5.83;;;;;;;6.91;92.55;100104.38;5033056;28;20644;-70
2023/11/12 08:24:46;;;;;;;9.07;6.47;;;;;;;6.95;91.73;100102.66;5032037;28;20223;-71
2023/11/12 08:27:13;;;;;;;19.07;6.97;;;;;;;7.00;92.28;100102.50;5031603;28;20203;-70
2023/11/12 08:29:39;;;;;;;8.87;6.07;;;;;;;7.02;91.77;100108.97;5036117;28;20199;-72
2023/11/12 08:32:06;;;;;;;8.33;5.47;;;;;;;7.05;91.42;100104.97;5033832;28;20206;-69
2023/11/12 08:34:33;;;;;;;6.07;4.53;;;;;;;7.07;91.71;100106.19;5035073;28;20231;-71
2023/11/12 08:36:59;;;;;;;5.33;4.60;;;;;;;7.12;90.82;100111.28;5035151;28;20951;-71
2023/11/12 08:39:27;;;;;;;6.67;4.90;;;;;;;7.18;90.54;100109.22;5033455;28;20224;-72
2023/11/12 08:41:55;;;;;;;10.17;5.50;;;;;;;7.26;90.53;100113.69;5032900;28;20211;-70
2023/11/12 08:44:21;;;;;;;6.77;4.77;;;;;;;7.32;91.29;100115.84;5034039;28;20235;-71
2023/11/12 08:46:48;;;;;;;6.83;5.20;;;;;;;7.38;91.25;100125.09;5031684;28;20299;-71
2023/11/12 08:49:14;;;;;;;7.57;4.83;;;;;;;7.42;90.89;100126.00;5033028;28;20201;-71
2023/11/12 08:51:41;;;;;;;6.03;4.27;;;;;;;7.45;90.23;100119.34;5028997;28;20212;-71
2023/11/12 08:54:09;;;;;;;6.93;4.50;;;;;;;7.47;89.88;100127.69;5034405;28;20231;-70
2023/11/12 08:56:36;;;;;;;5.33;4.33;;;;;;;7.45;89.21;100128.00;5031635;28;20387;-71
2023/11/12 08:59:04;;;;;;;6.83;4.57;;;;;;;7.45;88.50;100124.59;5014066;28;20215;-71
2023/11/12 09:01:34;;;;;;;7.10;5.20;;;;;;;7.45;88.59;100132.50;5032591;28;20676;-71
2023/11/12 09:04:00;;;;;;;6.67;4.73;;;;;;;7.44;88.99;100136.97;5030736;28;20295;-70
2023/11/12 09:06:26;;;;;;;7.83;4.30;;;;;;;7.46;88.73;100140.03;5034097;28;20400;-71
2023/11/12 09:08:53;;;;;;;5.63;4.43;;;;;;;7.44;89.21;100136.19;5030085;28;20673;-70
2023/11/12 09:11:19;;;;;;;8.67;5.23;;;;;;;7.44;88.91;100150.09;5031753;28;20472;-70
2023/11/12 09:13:47;;;;;;;6.83;5.43;;;;;;;7.45;88.66;100146.38;5029558;28;20251;-69
2023/11/12 09:16:14;;;;;;;9.23;4.70;;;;;;;7.47;88.47;100143.44;5032706;28;20203;-69
2023/11/12 09:18:41;;;;;;;6.10;4.33;;;;;;;7.48;88.61;100153.63;5029044;28;20227;-70
2023/11/12 09:21:07;;;;;;;6.33;4.17;;;;;;;7.48;88.53;100150.22;5032679;28;20769;-69
2023/11/12 09:23:34;;;;;;;4.83;4.10;;;;;;;7.50;88.62;100159.34;5031028;28;20232;-67
2023/11/12 09:26:00;;;;;;;4.80;3.87;;;;;;;7.51;88.10;100157.50;5029399;28;20234;-70
2023/11/12 09:28:26;;;;;;;8.43;4.53;;;;;;;7.52;88.28;100156.41;5030881;28;20199;-72
2023/11/12 09:30:53;;;;;;;5.40;4.10;;;;;;;7.55;88.36;100158.38;5037571;28;20203;-72
2023/11/12 09:33:20;;;;;;;10.57;4.57;;;;;;;7.56;88.50;100157.31;5040027;28;20228;-71
2023/11/12 09:35:47;;;;;;;5.73;5.07;;;;;;;7.57;88.77;100158.84;5030906;28;20569;-71
2023/11/12 09:38:14;;;;;;;4.47;4.03;;;;;;;7.57;88.33;100159.63;5030369;28;20433;-71
2023/11/12 09:40:42;;;;;;;5.23;4.20;;;;;;;7.59;88.50;100160.09;5033938;28;20199;-71
2023/11/12 09:43:09;;;;;;;6.13;4.30;;;;;;;7.59;88.08;100160.09;5031420;28;20845;-71
2023/11/12 09:45:39;;;;;;;6.70;4.60;;;;;;;7.61;88.72;100157.16;5033743;28;20200;-71
2023/11/12 09:48:19;;;;;;;6.00;4.27;;;;;;;7.64;88.44;100159.13;5029446;28;20315;-72
2023/11/12 09:50:48;;;;;;;11.60;4.40;;;;;;;7.68;89.11;100158.19;5029127;28;20212;-70
2023/11/12 09:53:15;;;;;;;5.30;3.77;;;;;;;7.72;88.88;100147.81;5032911;28;20598;-71
2023/11/12 09:55:44;;;;;;;4.43;3.50;;;;;;;7.77;88.63;100148.41;5032835;28;20212;-71
2023/11/12 09:58:11;;;;;;;5.30;4.10;;;;;;;7.81;88.76;100149.31;5032738;28;20224;-72
2023/11/12 10:00:37;;;;;;;9.97;4.63;;;;;;;7.85;87.63;100146.81;5032874;28;20233;-71
2023/11/12 10:03:06;;;;;;;5.20;4.57;;;;;;;7.91;87.53;100145.53;5030468;28;20806;-70
2023/11/12 10:05:35;;;;;;;7.87;3.90;;;;;;;7.94;87.69;100156.22;5030832;28;20625;-71
2023/11/12 10:08:04;;;;;;;3.90;3.50;;;;;;;7.99;87.37;100150.78;5030159;28;20303;-72
2023/11/12 10:10:31;;;;;;;3.83;3.53;;;;;;;8.04;87.75;100153.22;5030133;28;20283;-71
2023/11/12 10:12:58;;;;;;;3.77;3.13;;;;;;;8.11;87.48;100148.22;5032364;28;20642;-71
2023/11/12 10:15:27;;;;;;;4.33;3.90;;;;;;;8.17;87.11;100144.31;5033872;28;20208;-70
2023/11/12 10:17:54;;;;;;;3.97;3.33;;;;;;;8.26;87.69;100150.31;5031671;28;20201;-72
2023/11/12 10:20:21;;;;;;;4.83;3.53;;;;;;;8.33;87.54;100147.19;5030836;28;20374;-71
2023/11/12 10:22:48;;;;;;;4.27;3.30;;;;;;;8.37;86.34;100143.59;5029914;28;21798;-73
2023/11/12 10:25:36;;;;;;;7.97;4.00;;;;;;;8.44;85.31;100138.56;5023621;28;20209;-70
2023/11/12 10:28:03;;;;;;;6.30;3.93;;;;;;;8.51;85.93;100153.84;5032168;28;20206;-70
2023/11/12 10:30:29;;;;;;;3.13;2.90;;;;;;;8.53;84.76;100151.66;5032742;28;20209;-70
2023/11/12 10:32:58;;;;;;;5.30;3.23;;;;;;;8.57;84.93;100153.34;5023395;28;20621;-69
2023/11/12 10:35:26;;;;;;;4.20;3.60;;;;;;;8.58;83.70;100146.97;5002783;28;20210;-71
2023/11/12 10:37:56;;;;;;;6.77;5.07;;;;;;;8.59;83.43;100148.53;5017482;28;20237;-72
2023/11/12 10:40:24;;;;;;;11.03;5.77;;;;;;;8.59;82.74;100148.53;5025762;28;20195;-72
2023/11/12 10:42:58;;;;;;;4.93;3.10;;;;;;;8.58;82.94;100151.47;5012340;28;20224;-71
2023/11/12 10:45:24;;;;;;;8.27;4.90;;;;;;;8.59;82.83;100150.41;5026439;28;20286;-71
2023/11/12 10:47:55;;;;;;;7.83;5.40;;;;;;;8.59;83.01;100153.78;5028810;28;20216;-70
2023/11/12 10:50:23;;;;;;;13.73;8.33;;;;;;;8.63;81.76;100144.16;5029698;28;20200;-71
2023/11/12 10:52:53;;;;;;;4.60;3.27;;;;;;;8.67;82.73;100152.97;5030571;28;20558;-71
2023/11/12 10:55:22;;;;;;;7.73;6.33;;;;;;;8.69;81.98;100153.38;5003482;28;20253;-70
2023/11/12 10:57:51;;;;;;;9.57;5.83;;;;;;;8.71;82.54;100148.59;5026379;28;20281;-70
2023/11/12 11:00:19;;;;;;;3.50;3.10;;;;;;;8.71;81.29;100151.22;5029694;28;20392;-71
2023/11/12 11:02:48;;;;;;;5.50;3.13;;;;;;;8.73;81.63;100146.41;5032117;28;20284;-71
2023/11/12 11:05:15;;;;;;;6.03;3.33;;;;;;;8.77;82.53;100157.03;5031130;28;20652;-72
2023/11/12 11:07:43;;;;;;;4.73;3.10;;;;;;;8.80;82.21;100154.53;5030725;28;20661;-72
2023/11/12 11:10:09;;;;;;;3.60;2.87;;;;;;;8.80;82.34;100157.16;5023696;28;20218;-69
2023/11/12 11:12:39;;;;;;;4.17;3.00;;;;;;;8.82;82.32;100159.47;5028298;28;20199;-71
2023/11/12 11:15:45;;;;;;;3.43;3.13;;;;;;;8.84;82.74;100171.22;5028767;28;20237;-70
2023/11/12 11:18:45;;;;;;;3.50;3.20;;;;;;;8.85;82.35;100159.59;5027024;28;20545;-71
2023/11/12 11:21:13;;;;;;;3.53;2.90;;;;;;;8.84;82.24;100168.59;5024873;28;20212;-72
2023/11/12 11:23:40;;;;;;;7.87;3.70;;;;;;;8.83;81.26;100169.69;5030349;28;20321;-72
2023/11/12 11:26:27;;;;;;;4.30;3.30;;;;;;;8.83;82.24;100172.31;5028437;28;20206;-70
2023/11/12 11:29:13;;;;;;;4.37;3.50;;;;;;;8.82;83.33;100167.38;5028222;28;20611;-69
2023/11/12 11:32:02;;;;;;;7.10;3.23;;;;;;;8.80;81.94;100166.94;5025650;28;20198;-71
2023/11/12 11:34:38;;;;;;;4.43;3.47;;;;;;;8.78;82.44;100177.00;5031363;28;20234;-70
2023/11/12 11:37:05;;;;;;;3.87;3.50;;;;;;;8.75;82.92;100167.88;5028960;28;20225;-71
2023/11/12 11:39:32;;;;;;;3.97;3.00;;;;;;;8.74;84.13;100171.63;5029755;28;20254;-71